San Leon, Texas
Current Conditions -  °F | °C
As of 12:50 PM on Saturday 20 Dec 2014 (Local Time) from KEFD Reporting Station
Overcast Overcast  
Wind Chill: 54°   Ceiling: 1000
Heat Index: 54°   Visibility: 7mi
Dew Point: 52°   Wind: 8mph
Humidity: 94%   Direction: 360°N
Pressure: 30.19"   Gusts: NA
Location:  29.4598°N, 95.0288°W
Report Text: KEFD 201850Z 36007KT 7SM OVC010 12/11 A3019
Loading
Personal Weather Stations






























Interactive Weather Map New forecast layout! Learn more

10-Day Weather Forecast

Advertisements
Track Severe Weather on mobile